Portada
METAR-TAF:

METAR-TAF

Aeroports :

Bonaire, Antilles Neerlandeses

latitud: 12-09N, longitud: 068-17W, altitud: 6 m

Observació

L'informe es va fer fa 35 minuts, a les 10:55 UTC
Vent 11 kt del Est/Nord-Est, variant entre Nord-Est i Est/Sud-Est
Temperatura 26°C
Humitat 79%
Pressió 1013 hPa
Visibilitat 10 km o més

METAR: TNCB 191055Z AUTO 07011KT 050V110 9999 FEW019/// SCT023/// 26/22 Q1013

Hora: 07:30 (11:30 UTC)

Pronòstic

L'informe es va fer fa 6 hores i 22 minuts, a les 05:08 UTC
Pronòstic vàlid del 19 a les 06 UTC al 20 a les 12 UTC
Vent 14 kt del Est
Visibilitat 10 km o més
Núvols disperses a una alçada de 2000 ft
Probabilitat 30% :
Temporalment
l' 19 a les 11 UTC al 20 a les 12 UTC
Vent 15 kt del Est amb ràfegues de 25 kt
Visibilitat: 5000 m
Núvols disperses a una alçada de 1800 ft, Cumulus congestus.
xàfecs de pluja

TAF: TNCB 190508Z 1906/2012 09014KT 9999 SCT020 PROB30 TEMPO 1911/2012 09015G25KT 5000 -SHRA SCT018TCU

Observacions i pronòstics meteorològics de més de 4000 aeroports (METAR i TAF).

Les estacions disponibles són els punts grocs i vermells al mapa.

Posi el ratolí al punt desitjat per veure el nom de l'estació.

Feu clic per veure les observacions i els pronòstics meteorològics.

Per canviar el mapa: feu clic els botons verds amb una creu de color negre per apropar; al botó verd amb un guió per allunyar la imatge; o en les fletxes verdes per a mapes adjacents.


METAR-TAF: